Time;durP1;ratioP1;P1;durP2;ratioP2;P2;SDS_P1;SDS_P2;PMS_P1;PMS_P2;Temp;Humidity;BMP_temperature;BMP_pressure;BME280_temperature;BME280_humidity;BME280_pressure;Samples;Min_cycle;Max_cycle;Signal;HPM_P1;HPM_P2
2022/03/28 00:00:10;;;;;;;7.57;3.42;;;;;;;7.87;52.23;101594.00;5569816;32;35266;-64
2022/03/28 00:03:13;;;;;;;7.03;3.42;;;;;;;7.77;52.40;101593.06;5569887;32;33948;-64
2022/03/28 00:06:16;;;;;;;10.75;4.18;;;;;;;7.63;52.95;101592.44;5569832;32;34721;-64
2022/03/28 00:09:19;;;;;;;7.70;3.95;;;;;;;7.54;53.40;101595.81;5569799;32;35215;-64
2022/03/28 00:12:21;;;;;;;6.50;3.60;;;;;;;7.89;53.47;101585.94;5569751;32;34092;-64
2022/03/28 00:15:25;;;;;;;9.63;5.05;;;;;;;8.09;52.93;101592.28;5569748;32;34182;-64
2022/03/28 00:18:27;;;;;;;11.65;4.25;;;;;;;7.99;53.60;101588.72;5568972;32;33903;-64
2022/03/28 00:21:30;;;;;;;10.25;4.30;;;;;;;8.25;53.10;101587.47;5569711;32;34173;-64
2022/03/28 00:24:33;;;;;;;8.30;4.37;;;;;;;8.10;54.08;101575.47;5556025;32;34036;-64
2022/03/28 00:27:37;;;;;;;11.43;4.70;;;;;;;7.83;55.03;101581.16;5569682;32;34617;-64
2022/03/28 00:30:40;;;;;;;10.40;5.32;;;;;;;7.75;55.76;101579.09;5569442;32;33887;-64
2022/03/28 00:33:43;;;;;;;10.55;5.03;;;;;;;7.61;56.37;101576.72;5569454;32;33828;-64
2022/03/28 00:36:46;;;;;;;12.18;5.18;;;;;;;7.60;56.74;101566.28;5569387;32;34423;-64
2022/03/28 00:39:48;;;;;;;10.50;4.75;;;;;;;7.51;56.96;101572.25;5569331;32;33965;-64
2022/03/28 00:42:51;;;;;;;10.98;5.30;;;;;;;7.45;57.09;101556.91;5569251;32;34664;-64
2022/03/28 00:45:54;;;;;;;11.07;5.93;;;;;;;7.42;57.02;101569.37;5569185;32;34093;-64
2022/03/28 00:48:56;;;;;;;9.98;6.00;;;;;;;7.26;57.80;101557.50;5569152;32;33890;-64
2022/03/28 00:51:59;;;;;;;11.60;5.50;;;;;;;7.04;58.58;101554.78;5569131;32;34722;-64
2022/03/28 00:55:03;;;;;;;9.13;4.35;;;;;;;7.32;57.70;101559.63;5569264;32;33930;-63
2022/03/28 00:58:06;;;;;;;10.02;5.18;;;;;;;7.18;58.20;101555.41;5569336;32;34398;-64
2022/03/28 01:01:09;;;;;;;12.60;5.43;;;;;;;6.94;58.79;101550.22;5569019;32;34687;-64
2022/03/28 01:04:12;;;;;;;11.88;5.95;;;;;;;6.73;59.58;101558.91;5568982;32;34578;-64
2022/03/28 01:07:17;;;;;;;9.88;5.53;;;;;;;6.55;60.12;101553.19;5568848;32;35143;-64
2022/03/28 01:10:20;;;;;;;9.75;5.60;;;;;;;6.43;60.81;101548.84;5568907;32;35223;-64
2022/03/28 01:13:23;;;;;;;10.05;5.65;;;;;;;6.29;61.61;101555.13;5568659;32;34000;-64
2022/03/28 01:16:30;;;;;;;11.85;5.68;;;;;;;6.20;61.81;101552.28;5568549;32;34077;-64
2022/03/28 01:19:33;;;;;;;13.13;6.03;;;;;;;6.05;62.05;101547.16;5568679;32;34053;-64
2022/03/28 01:22:37;;;;;;;9.82;5.25;;;;;;;6.26;61.98;101543.94;5568541;32;34190;-64
2022/03/28 01:25:43;;;;;;;6.62;4.43;;;;;;;6.19;61.82;101545.34;5568520;32;33894;-64
2022/03/28 01:28:46;;;;;;;11.30;4.78;;;;;;;5.98;62.31;101542.47;5568379;32;34200;-64
2022/03/28 01:31:49;;;;;;;13.60;5.45;;;;;;;5.99;63.08;101539.72;5570968;32;34016;-64
2022/03/28 01:34:51;;;;;;;11.38;5.97;;;;;;;5.86;62.70;101530.97;5571309;32;34058;-64
2022/03/28 01:37:54;;;;;;;12.77;5.72;;;;;;;5.78;63.01;101516.66;5571191;32;34547;-64
2022/03/28 01:40:57;;;;;;;10.85;5.90;;;;;;;5.99;62.43;101525.72;5571138;32;34405;-64
2022/03/28 01:44:00;;;;;;;12.07;5.47;;;;;;;6.21;60.84;101523.19;5571096;32;34612;-64
2022/03/28 01:47:03;;;;;;;9.80;5.55;;;;;;;6.43;60.21;101520.69;5571035;32;34467;-64
2022/03/28 01:50:06;;;;;;;11.73;5.30;;;;;;;6.42;60.14;101512.88;5571035;32;34214;-64
2022/03/28 01:53:09;;;;;;;11.60;6.35;;;;;;;6.49;59.61;101512.28;5571073;32;35201;-64
2022/03/28 01:56:11;;;;;;;10.07;5.85;;;;;;;6.60;58.91;101508.88;5571042;32;34005;-64
2022/03/28 01:59:14;;;;;;;13.10;6.03;;;;;;;6.66;58.29;101512.84;5571346;32;33524;-64
2022/03/28 02:02:16;;;;;;;9.75;5.43;;;;;;;6.66;57.90;101508.41;5571008;32;34169;-64
2022/03/28 02:05:19;;;;;;;10.93;5.20;;;;;;;6.64;57.41;101505.03;5570959;32;33892;-64
2022/03/28 02:08:22;;;;;;;9.63;5.55;;;;;;;6.57;57.72;101501.19;5571045;32;34547;-64
2022/03/28 02:11:25;;;;;;;15.52;6.10;;;;;;;6.32;58.88;101509.25;5570904;32;33991;-64
2022/03/28 02:14:28;;;;;;;12.48;5.53;;;;;;;6.02;59.76;101504.41;5570783;32;34073;-65
2022/03/28 02:17:31;;;;;;;12.57;5.65;;;;;;;5.79;60.58;101516.56;5570496;32;34288;-64
2022/03/28 02:20:34;;;;;;;9.73;5.35;;;;;;;5.61;61.23;101510.84;5570647;32;34720;-64
2022/03/28 02:23:37;;;;;;;14.02;6.12;;;;;;;5.49;61.70;101508.19;5557104;32;34138;-64
2022/03/28 02:26:39;;;;;;;14.48;6.62;;;;;;;5.38;61.69;101506.31;5570704;32;33962;-64
2022/03/28 02:29:42;;;;;;;13.15;5.97;;;;;;;5.30;61.88;101506.00;5564921;32;181222;-65
2022/03/28 02:32:45;;;;;;;14.43;6.45;;;;;;;5.21;62.76;101510.12;5570659;32;33954;-64
2022/03/28 02:35:48;;;;;;;14.30;6.80;;;;;;;5.19;62.20;101509.38;5570603;32;34116;-64
2022/03/28 02:38:51;;;;;;;13.38;6.55;;;;;;;5.12;62.23;101507.28;5570538;32;35222;-64
2022/03/28 02:41:53;;;;;;;13.80;6.75;;;;;;;5.03;62.51;101507.94;5570098;32;34658;-64
2022/03/28 02:44:57;;;;;;;12.32;6.40;;;;;;;4.98;62.25;101508.25;5570907;32;34734;-64
2022/03/28 02:48:00;;;;;;;11.15;6.00;;;;;;;4.90;62.43;101507.91;5570676;32;35363;-64
2022/03/28 02:51:02;;;;;;;12.90;5.37;;;;;;;4.86;62.36;101505.59;5570479;32;34009;-64
2022/03/28 02:54:06;;;;;;;11.55;6.00;;;;;;;4.82;62.47;101510.22;5570772;32;33918;-65
2022/03/28 02:57:08;;;;;;;13.05;5.87;;;;;;;4.77;62.23;101507.91;5570442;32;33888;-64
2022/03/28 03:00:12;;;;;;;12.15;5.28;;;;;;;4.75;62.08;101512.41;5570449;32;33993;-64
2022/03/28 03:03:14;;;;;;;11.55;5.00;;;;;;;4.69;62.61;101512.00;5570713;32;34567;-65
2022/03/28 03:06:18;;;;;;;12.50;5.50;;;;;;;4.67;61.85;101517.34;5570246;32;33922;-64
2022/03/28 03:09:20;;;;;;;13.02;5.78;;;;;;;4.66;61.86;101510.41;5570526;32;33924;-64
2022/03/28 03:12:23;;;;;;;10.73;4.87;;;;;;;4.59;61.69;101498.63;5570659;32;33901;-64
2022/03/28 03:15:26;;;;;;;10.20;5.40;;;;;;;4.57;61.89;101503.12;5570348;32;34072;-64
2022/03/28 03:18:29;;;;;;;9.38;5.15;;;;;;;4.57;61.67;101499.66;5570064;32;35087;-64
2022/03/28 03:21:32;;;;;;;10.05;5.47;;;;;;;4.53;61.65;101495.53;5556739;32;34684;-64
2022/03/28 03:24:35;;;;;;;7.65;4.82;;;;;;;4.47;61.94;101493.31;5570164;32;34074;-64
2022/03/28 03:27:38;;;;;;;10.23;5.40;;;;;;;4.46;61.71;101497.72;5570147;32;33926;-64
2022/03/28 03:30:42;;;;;;;8.85;4.80;;;;;;;4.42;61.88;101496.25;5556409;32;34656;-64
2022/03/28 03:33:44;;;;;;;10.80;5.62;;;;;;;4.36;62.17;101488.75;5570532;32;34396;-64
2022/03/28 03:36:47;;;;;;;9.80;5.22;;;;;;;4.33;62.16;101489.81;5556515;32;35150;-64
2022/03/28 03:39:50;;;;;;;13.77;5.05;;;;;;;4.29;62.37;101490.13;5570366;32;34619;-63
2022/03/28 03:42:52;;;;;;;10.57;4.57;;;;;;;4.28;62.75;101477.94;5570017;32;34587;-65
2022/03/28 03:45:55;;;;;;;11.48;4.28;;;;;;;4.29;62.56;101475.22;5570107;32;34037;-64
2022/03/28 03:48:58;;;;;;;8.75;5.15;;;;;;;4.27;62.77;101478.88;5569677;32;35487;-64
2022/03/28 03:52:00;;;;;;;16.62;6.20;;;;;;;4.26;62.80;101485.09;5569039;32;34563;-64
2022/03/28 03:55:04;;;;;;;13.48;5.35;;;;;;;4.19;63.38;101475.91;5569627;32;33924;-65
2022/03/28 03:58:07;;;;;;;10.43;5.15;;;;;;;4.18;64.83;101474.22;5570005;32;34627;-64
2022/03/28 04:01:10;;;;;;;11.98;5.18;;;;;;;4.14;64.96;101473.59;5569901;32;33887;-64
2022/03/28 04:04:14;;;;;;;11.00;5.97;;;;;;;4.09;65.51;101473.03;5569822;32;34576;-64
2022/03/28 04:07:16;;;;;;;13.73;6.05;;;;;;;4.07;67.12;101479.31;5570141;32;34545;-65
2022/03/28 04:10:19;;;;;;;13.57;6.37;;;;;;;4.04;68.49;101482.16;5569916;32;34810;-64
2022/03/28 04:13:22;;;;;;;13.40;6.00;;;;;;;4.03;69.13;101488.34;5556160;32;33980;-64
2022/03/28 04:16:25;;;;;;;12.15;6.70;;;;;;;4.04;71.29;101483.00;5569999;32;34062;-64
2022/03/28 04:19:27;;;;;;;13.13;7.12;;;;;;;4.02;73.69;101482.25;5569461;32;34129;-64
2022/03/28 04:22:30;;;;;;;12.82;7.57;;;;;;;4.01;76.08;101482.38;5569572;32;33958;-65
2022/03/28 04:25:34;;;;;;;14.52;7.22;;;;;;;3.95;77.31;101483.59;5569830;32;34770;-64
2022/03/28 04:28:37;;;;;;;20.15;7.90;;;;;;;3.89;78.21;101481.34;5569325;32;33962;-65
2022/03/28 04:31:40;;;;;;;11.90;6.07;;;;;;;3.96;81.01;101484.44;5556157;32;34019;-64
2022/03/28 04:34:43;;;;;;;14.27;6.87;;;;;;;3.92;80.76;101481.19;5569398;32;33901;-64
2022/03/28 04:37:46;;;;;;;14.13;7.30;;;;;;;3.93;81.60;101478.44;5569188;32;34548;-64
2022/03/28 04:40:48;;;;;;;17.33;8.57;;;;;;;3.96;82.15;101487.91;5569323;32;33895;-64
2022/03/28 04:43:51;;;;;;;13.57;8.05;;;;;;;4.00;82.87;101481.53;5555960;32;34196;-64
2022/03/28 04:46:54;;;;;;;15.13;8.23;;;;;;;3.90;83.36;101478.66;5569317;32;34595;-64
2022/03/28 04:49:57;;;;;;;17.15;9.10;;;;;;;3.96;83.42;101476.56;5569287;32;34184;-64
2022/03/28 04:53:00;;;;;;;18.12;9.13;;;;;;;3.93;84.23;101477.59;5569166;32;34011;-64
2022/03/28 04:56:06;;;;;;;18.25;9.10;;;;;;;3.99;84.15;101477.19;5569026;32;34032;-64
2022/03/28 04:59:10;;;;;;;22.90;9.23;;;;;;;4.06;84.01;101480.28;5568925;32;34692;-64
2022/03/28 05:02:12;;;;;;;17.52;8.73;;;;;;;4.07;83.84;101479.31;5568853;32;33918;-64
2022/03/28 05:05:15;;;;;;;20.65;9.48;;;;;;;4.08;84.36;101473.97;5570528;32;35184;-64
2022/03/28 05:08:19;;;;;;;18.23;8.60;;;;;;;4.30;83.89;101481.31;5571458;32;34008;-64
2022/03/28 05:11:22;;;;;;;17.58;8.75;;;;;;;4.21;83.53;101482.72;5571181;32;33976;-64
2022/03/28 05:14:25;;;;;;;16.60;8.52;;;;;;;4.33;82.34;101478.47;5571513;32;34358;-65
2022/03/28 05:17:29;;;;;;;16.87;8.43;;;;;;;4.40;81.24;101485.03;5571062;32;34006;-64
2022/03/28 05:20:32;;;;;;;15.02;8.00;;;;;;;4.54;79.60;101484.09;5571421;32;33746;-65
2022/03/28 05:23:35;;;;;;;15.30;7.32;;;;;;;4.62;79.04;101479.16;5571100;32;34159;-64
2022/03/28 05:26:38;;;;;;;17.42;8.07;;;;;;;4.65;78.92;101478.94;5571050;32;33562;-64
2022/03/28 05:29:42;;;;;;;17.73;9.27;;;;;;;4.73;77.78;101485.41;5570944;32;33884;-64
2022/03/28 05:32:44;;;;;;;16.15;8.88;;;;;;;4.96;75.42;101489.09;5571157;32;33245;-64
2022/03/28 05:35:47;;;;;;;18.45;8.93;;;;;;;4.99;74.82;101488.88;5570750;32;33943;-65
2022/03/28 05:38:50;;;;;;;19.00;8.35;;;;;;;5.07;74.04;101491.00;5556558;32;34010;-66
2022/03/28 05:41:53;;;;;;;15.60;8.40;;;;;;;5.25;73.78;101487.91;5570798;32;33999;-65
2022/03/28 05:44:56;;;;;;;18.20;8.02;;;;;;;5.34;73.29;101485.59;5571171;32;35249;-65
2022/03/28 05:47:58;;;;;;;15.88;6.93;;;;;;;5.47;72.91;101484.63;5570724;32;34679;-65
2022/03/28 05:51:02;;;;;;;18.55;7.95;;;;;;;5.60;72.21;101490.72;5570642;32;34413;-65
2022/03/28 05:54:05;;;;;;;17.48;7.22;;;;;;;5.71;71.53;101483.84;5570596;32;33706;-64
2022/03/28 05:57:08;;;;;;;17.40;7.65;;;;;;;5.77;71.41;101472.84;5570967;32;34273;-65
2022/03/28 06:00:13;;;;;;;18.85;7.53;;;;;;;5.88;70.58;101473.81;5570305;32;34842;-66
2022/03/28 06:03:16;;;;;;;17.05;8.63;;;;;;;5.87;70.74;101474.75;5570461;32;34816;-66
2022/03/28 06:06:36;;;;;;;15.88;7.57;;;;;;;6.06;70.56;101472.47;5558920;32;34624;-65
2022/03/28 06:09:39;;;;;;;18.33;7.45;;;;;;;6.23;68.10;101478.28;5570200;32;33931;-66
2022/03/28 06:12:42;;;;;;;16.67;8.20;;;;;;;6.27;67.93;101466.56;5570529;32;34062;-66
2022/03/28 06:15:45;;;;;;;15.60;7.82;;;;;;;6.40;67.09;101469.97;5569695;32;34078;-65
2022/03/28 06:18:48;;;;;;;15.50;7.20;;;;;;;6.54;65.88;101464.50;5570148;32;34610;-65
2022/03/28 06:21:50;;;;;;;15.02;7.20;;;;;;;6.86;64.04;101459.44;5570252;32;34825;-65
2022/03/28 06:24:53;;;;;;;13.18;7.57;;;;;;;7.07;62.52;101456.94;5570796;32;34526;-65
2022/03/28 06:27:56;;;;;;;14.82;7.12;;;;;;;7.33;61.34;101463.66;5570286;32;34009;-65
2022/03/28 06:30:59;;;;;;;12.77;7.28;;;;;;;7.57;60.22;101461.72;5570104;32;34556;-64
2022/03/28 06:34:02;;;;;;;16.00;8.25;;;;;;;8.10;56.67;101464.47;5570257;32;34001;-63
2022/03/28 06:37:05;;;;;;;19.60;8.00;;;;;;;8.81;53.95;101466.44;5570313;32;33957;-64
2022/03/28 06:40:08;;;;;;;15.32;7.30;;;;;;;9.12;52.31;101462.03;5570017;32;35150;-64
2022/03/28 06:43:17;;;;;;;16.12;7.87;;;;;;;10.35;49.49;101453.69;5557326;32;33956;-65
2022/03/28 06:46:22;;;;;;;16.30;7.37;;;;;;;10.96;45.72;101462.12;5570754;32;35248;-65
2022/03/28 06:49:25;;;;;;;18.33;7.50;;;;;;;11.38;40.84;101453.72;5570362;32;34050;-65
2022/03/28 06:52:27;;;;;;;17.33;6.75;;;;;;;11.84;41.58;101445.69;5569385;32;34063;-65
2022/03/28 06:55:30;;;;;;;20.83;7.12;;;;;;;12.34;38.70;101450.50;5570309;32;34030;-65
2022/03/28 06:58:33;;;;;;;12.32;6.07;;;;;;;13.51;36.52;101454.44;5570093;32;34346;-66
2022/03/28 07:01:36;;;;;;;18.50;5.65;;;;;;;12.71;34.38;101448.44;5570614;32;33902;-66
2022/03/28 07:04:40;;;;;;;11.45;5.40;;;;;;;13.00;34.96;101453.47;5570233;32;33935;-65
2022/03/28 07:07:45;;;;;;;13.15;6.60;;;;;;;13.87;31.39;101451.38;5570097;32;34606;-65
2022/03/28 07:10:48;;;;;;;10.77;4.60;;;;;;;11.96;31.71;101448.94;5570269;32;34669;-65
2022/03/28 07:13:51;;;;;;;13.23;4.22;;;;;;;12.56;31.44;101450.00;5556510;32;33925;-65
2022/03/28 07:16:53;;;;;;;8.57;4.80;;;;;;;13.35;29.62;101442.72;5570271;32;34440;-66
2022/03/28 07:19:57;;;;;;;9.85;4.75;;;;;;;13.32;29.33;101437.69;5569922;32;33988;-66
2022/03/28 07:23:01;;;;;;;9.05;4.45;;;;;;;13.16;29.55;101436.78;5569970;32;34566;-66
2022/03/28 07:26:04;;;;;;;8.90;4.53;;;;;;;13.37;29.41;101435.38;5570205;32;33957;-65
2022/03/28 07:29:07;;;;;;;10.15;4.15;;;;;;;14.21;28.59;101423.75;5570001;32;34646;-65
2022/03/28 07:32:10;;;;;;;11.35;4.20;;;;;;;14.72;26.62;101422.56;5570138;32;34082;-65
2022/03/28 07:35:15;;;;;;;9.90;4.32;;;;;;;14.70;26.68;101424.59;5570026;32;34699;-65
2022/03/28 07:38:19;;;;;;;12.88;4.87;;;;;;;13.96;27.06;101428.22;5569980;32;33931;-66
2022/03/28 07:41:22;;;;;;;11.30;4.22;;;;;;;14.54;26.50;101427.28;5570185;32;34671;-66
2022/03/28 07:44:25;;;;;;;11.45;5.30;;;;;;;15.45;26.02;101430.37;5569855;32;34030;-65
2022/03/28 07:47:27;;;;;;;11.00;4.93;;;;;;;17.58;23.89;101428.22;5569740;32;34534;-66
2022/03/28 07:50:31;;;;;;;13.80;5.30;;;;;;;17.73;23.41;101425.53;5569939;32;33886;-65
2022/03/28 07:53:34;;;;;;;15.48;4.12;;;;;;;18.55;21.83;101420.59;5569764;32;34109;-67
2022/03/28 07:56:38;;;;;;;20.90;4.87;;;;;;;18.95;20.94;101421.72;5570273;32;34296;-66
2022/03/28 07:59:45;;;;;;;6.05;4.30;;;;;;;17.47;22.09;101425.22;5569920;32;34357;-66
2022/03/28 08:02:48;;;;;;;11.18;4.55;;;;;;;19.01;21.03;101420.94;5569844;32;34352;-66
2022/03/28 08:05:53;;;;;;;6.90;4.37;;;;;;;19.04;20.80;101420.53;5569537;32;34016;-66
2022/03/28 08:08:56;;;;;;;8.65;4.10;;;;;;;19.13;20.98;101413.97;5569567;32;35257;-66
2022/03/28 08:11:59;;;;;;;9.02;4.40;;;;;;;20.68;19.76;101420.19;5556048;32;35064;-66
2022/03/28 08:15:05;;;;;;;14.18;5.07;;;;;;;22.36;18.32;101414.56;5569764;32;34010;-66
2022/03/28 08:18:08;;;;;;;7.62;4.37;;;;;;;22.73;16.88;101410.94;5569484;32;34031;-66
2022/03/28 08:21:10;;;;;;;7.90;3.47;;;;;;;21.31;18.84;101405.16;5569040;32;34310;-66
2022/03/28 08:24:13;;;;;;;8.98;4.37;;;;;;;18.51;20.99;101392.44;5569264;32;34293;-66
2022/03/28 08:27:16;;;;;;;8.38;4.18;;;;;;;18.73;21.92;101396.78;5569336;32;34752;-66
2022/03/28 08:30:19;;;;;;;6.90;3.78;;;;;;;19.28;20.98;101390.44;5568979;32;33988;-66
2022/03/28 08:33:22;;;;;;;6.78;2.97;;;;;;;20.95;19.31;101397.56;5569335;32;34080;-66
2022/03/28 08:36:26;;;;;;;6.82;3.80;;;;;;;18.06;22.28;101385.63;5569185;32;34444;-66
2022/03/28 08:39:30;;;;;;;12.18;3.90;;;;;;;20.32;19.97;101383.75;5568725;32;33993;-66
2022/03/28 08:42:33;;;;;;;7.97;3.53;;;;;;;20.59;20.39;101379.16;5569002;32;34607;-66
2022/03/28 08:45:38;;;;;;;6.05;3.87;;;;;;;22.76;18.65;101372.59;5568800;32;34102;-67
2022/03/28 08:48:42;;;;;;;6.30;3.62;;;;;;;20.30;20.71;101375.03;5568655;32;34719;-67
2022/03/28 08:51:46;;;;;;;9.48;4.03;;;;;;;20.76;20.34;101366.91;5568927;32;34373;-67
2022/03/28 08:54:50;;;;;;;9.70;3.47;;;;;;;22.52;19.12;101363.44;5568663;32;34782;-66
2022/03/28 08:57:52;;;;;;;6.47;3.78;;;;;;;22.73;20.05;101366.81;5568733;32;34694;-67
2022/03/28 09:00:56;;;;;;;7.40;3.83;;;;;;;22.81;19.86;101361.94;5568537;32;34643;-67
2022/03/28 09:04:10;;;;;;;6.37;3.80;;;;;;;18.24;24.91;101351.94;5568595;32;35336;-66
2022/03/28 09:07:24;;;;;;;8.57;4.28;;;;;;;18.13;25.44;101355.13;5568494;32;34082;-67
2022/03/28 09:10:32;;;;;;;8.00;4.32;;;;;;;17.29;26.46;101358.53;5568511;32;33970;-66
2022/03/28 09:13:43;;;;;;;5.68;3.95;;;;;;;16.00;29.36;101358.03;5568303;32;34631;-66
2022/03/28 09:16:58;;;;;;;11.80;4.55;;;;;;;15.70;29.87;101356.22;5568427;32;34038;-66
2022/03/28 09:20:03;;;;;;;15.73;4.28;;;;;;;15.56;30.50;101347.97;5568014;32;34358;-66
2022/03/28 09:23:29;;;;;;;8.10;4.60;;;;;;;15.40;30.81;101349.84;5567654;32;34756;-66
2022/03/28 09:26:32;;;;;;;12.90;4.78;;;;;;;15.48;30.51;101336.44;5568209;32;34073;-66
2022/03/28 09:30:08;;;;;;;8.20;4.20;;;;;;;15.21;31.50;101335.06;5568174;32;34117;-66
2022/03/28 09:33:12;;;;;;;8.75;4.60;;;;;;;14.99;32.11;101330.50;5568315;32;34738;-66
2022/03/28 09:36:15;;;;;;;9.85;4.30;;;;;;;15.05;32.52;101325.31;5567865;32;34051;-66
2022/03/28 09:39:19;;;;;;;8.13;4.55;;;;;;;14.93;33.34;101318.66;5567348;32;34140;-66
2022/03/28 09:42:22;;;;;;;15.15;4.62;;;;;;;15.12;33.33;101317.41;5567917;32;34076;-66
2022/03/28 09:45:37;;;;;;;8.43;4.10;;;;;;;14.95;33.82;101316.66;5554425;32;33907;-66
2022/03/28 09:48:46;;;;;;;12.00;3.80;;;;;;;14.92;34.48;101311.66;5567750;32;34561;-65
2022/03/28 09:52:02;;;;;;;6.47;3.92;;;;;;;15.23;34.18;101301.84;5569509;32;34414;-64
2022/03/28 09:55:06;;;;;;;7.43;3.80;;;;;;;15.35;34.32;101307.59;5570949;32;34008;-64
2022/03/28 09:58:09;;;;;;;7.72;4.30;;;;;;;15.37;34.26;101292.22;5570393;32;34111;-66
2022/03/28 10:01:32;;;;;;;9.05;4.40;;;;;;;15.51;34.30;101286.16;5570648;32;33904;-65
2022/03/28 10:04:36;;;;;;;7.78;3.87;;;;;;;15.57;34.17;101276.59;5570685;32;33979;-66
2022/03/28 10:07:39;;;;;;;6.12;3.87;;;;;;;15.57;34.37;101277.41;5571139;32;34621;-66
2022/03/28 10:10:42;;;;;;;6.90;3.60;;;;;;;15.52;34.88;101262.91;5570794;32;33902;-66
2022/03/28 10:13:46;;;;;;;10.57;3.92;;;;;;;15.93;34.65;101260.72;5570582;32;34003;-65
2022/03/28 10:16:49;;;;;;;8.85;4.03;;;;;;;16.04;34.33;101263.81;5570874;32;34393;-65
2022/03/28 10:19:52;;;;;;;7.78;3.90;;;;;;;16.04;34.75;101254.94;5570344;32;33888;-65
2022/03/28 10:22:59;;;;;;;12.93;3.85;;;;;;;16.11;35.34;101253.22;5570188;32;34011;-66
2022/03/28 10:26:07;;;;;;;7.07;3.50;;;;;;;16.36;34.70;101249.22;5570456;32;34383;-65
2022/03/28 10:29:36;;;;;;;9.68;4.03;;;;;;;16.48;34.82;101245.09;5570707;32;34351;-65
2022/03/28 10:32:41;;;;;;;8.95;3.60;;;;;;;16.71;35.06;101236.97;5570400;32;33537;-65
2022/03/28 10:36:19;;;;;;;6.15;3.50;;;;;;;16.70;34.78;101224.59;5570564;32;34506;-65
2022/03/28 10:39:34;;;;;;;6.03;3.78;;;;;;;16.88;34.99;101213.47;5556842;32;34644;-65
2022/03/28 10:42:38;;;;;;;6.18;3.80;;;;;;;16.83;35.09;101202.50;5570438;32;34035;-66
2022/03/28 10:45:45;;;;;;;6.22;3.42;;;;;;;17.19;34.84;101199.78;5570305;32;34365;-65
2022/03/28 10:48:58;;;;;;;10.55;3.60;;;;;;;17.27;34.79;101191.62;5570401;32;34632;-66
2022/03/28 10:52:02;;;;;;;6.80;3.35;;;;;;;17.11;34.93;101181.97;5570154;32;34157;-67
2022/03/28 10:55:08;;;;;;;6.30;3.50;;;;;;;16.86;35.52;101178.81;5570567;32;34284;-66
2022/03/28 10:58:21;;;;;;;9.63;3.55;;;;;;;17.47;34.50;101171.19;5570348;32;34406;-66
2022/03/28 11:01:31;;;;;;;7.75;3.30;;;;;;;18.77;32.70;101171.38;5569377;32;34810;-65
2022/03/28 11:04:47;;;;;;;5.32;3.50;;;;;;;21.96;27.96;101160.88;5569851;32;34170;-66
2022/03/28 11:07:52;;;;;;;6.50;3.67;;;;;;;20.41;29.92;101157.94;5570003;32;33886;-66
2022/03/28 11:11:18;;;;;;;8.40;3.45;;;;;;;21.93;28.00;101146.94;5556197;32;34030;-66
2022/03/28 11:14:38;;;;;;;5.28;3.60;;;;;;;22.18;27.43;101147.72;5570117;32;34396;-66
2022/03/28 11:18:04;;;;;;;5.03;2.97;;;;;;;27.17;22.04;101132.59;5569979;32;34622;-66
2022/03/28 11:21:12;;;;;;;6.32;3.20;;;;;;;23.17;26.41;101130.19;5570021;32;34702;-66
2022/03/28 11:24:56;;;;;;;7.40;3.53;;;;;;;23.37;26.13;101119.88;5556228;32;33986;-66
2022/03/28 11:28:03;;;;;;;4.15;2.72;;;;;;;23.01;26.68;101106.50;5556801;32;34043;-68
2022/03/28 11:31:09;;;;;;;4.82;3.10;;;;;;;26.99;22.52;101108.47;5570105;32;33915;-68
2022/03/28 11:34:13;;;;;;;5.50;3.20;;;;;;;28.70;20.71;101095.03;5569849;32;34156;-67
2022/03/28 11:37:18;;;;;;;5.37;2.90;;;;;;;30.63;18.57;101084.56;5569964;32;34041;-66
2022/03/28 11:40:21;;;;;;;4.28;2.97;;;;;;;30.11;18.64;101074.16;5569854;32;33895;-67
2022/03/28 11:43:29;;;;;;;5.68;3.05;;;;;;;30.40;18.49;101088.78;5569903;32;34375;-68
2022/03/28 11:46:32;;;;;;;4.50;2.70;;;;;;;30.35;18.74;101071.56;5569769;32;34666;-67
2022/03/28 11:49:50;;;;;;;4.22;2.75;;;;;;;30.04;18.81;101060.78;5569895;32;34680;-67
2022/03/28 11:52:53;;;;;;;9.00;2.80;;;;;;;29.67;19.23;101047.47;5569765;32;34078;-67
2022/03/28 11:55:56;;;;;;;5.28;2.97;;;;;;;29.59;19.75;101039.84;5569798;32;33965;-67
2022/03/28 11:59:07;;;;;;;3.95;2.50;;;;;;;28.04;21.00;101028.50;5569951;32;34462;-68
2022/03/28 12:02:10;;;;;;;9.15;2.95;;;;;;;29.70;19.38;101022.31;5569497;32;33896;-68
2022/03/28 12:05:24;;;;;;;3.12;2.20;;;;;;;30.29;18.66;101009.72;5569824;32;34235;-68
2022/03/28 12:08:28;;;;;;;3.80;2.70;;;;;;;31.42;17.82;101001.94;5569836;32;34656;-68
2022/03/28 12:11:34;;;;;;;2.83;2.17;;;;;;;33.68;16.07;101000.69;5569891;32;33952;-67
2022/03/28 12:14:38;;;;;;;3.47;2.47;;;;;;;28.56;20.40;100990.19;5555115;32;34586;-67
2022/03/28 12:17:41;;;;;;;4.65;2.50;;;;;;;30.62;18.37;100995.28;5556083;32;34730;-67
2022/03/28 12:20:47;;;;;;;5.85;2.47;;;;;;;30.31;18.71;100971.94;5569314;32;34080;-68
2022/03/28 12:23:49;;;;;;;3.65;2.47;;;;;;;32.34;17.22;100976.91;5569590;32;34603;-68
2022/03/28 12:26:55;;;;;;;3.17;2.30;;;;;;;34.24;15.42;100955.41;5569892;32;34578;-68
2022/03/28 12:29:58;;;;;;;3.78;2.67;;;;;;;34.00;15.47;100955.66;5569238;32;33912;-68
2022/03/28 12:33:15;;;;;;;5.62;2.62;;;;;;;32.38;16.90;100955.97;5555917;32;33948;-68
2022/03/28 12:36:24;;;;;;;3.47;2.83;;;;;;;32.53;16.61;100941.19;5569308;32;34550;-68
2022/03/28 12:39:27;;;;;;;3.87;2.55;;;;;;;32.87;16.24;100932.66;5569310;32;34645;-68
2022/03/28 12:42:31;;;;;;;4.57;2.78;;;;;;;30.99;17.97;100917.94;5569378;32;34664;-67
2022/03/28 12:45:34;;;;;;;5.22;2.78;;;;;;;30.83;17.96;100920.06;5569018;32;34389;-67
2022/03/28 12:48:54;;;;;;;3.22;2.67;;;;;;;32.29;16.72;100919.34;5568586;32;34018;-68
2022/03/28 12:52:08;;;;;;;5.53;2.80;;;;;;;31.00;17.63;100905.88;5569270;32;34078;-68
2022/03/28 12:55:12;;;;;;;6.10;2.90;;;;;;;32.96;15.97;100889.59;5555255;32;33909;-68
2022/03/28 12:58:15;;;;;;;5.40;2.60;;;;;;;31.05;17.69;100886.69;5568667;32;34691;-68
2022/03/28 13:01:26;;;;;;;4.32;3.00;;;;;;;33.10;16.10;100885.72;5568845;32;33979;-67
2022/03/28 13:04:29;;;;;;;7.07;2.97;;;;;;;32.76;16.10;100877.87;5568608;32;34102;-67
2022/03/28 13:07:33;;;;;;;3.10;2.60;;;;;;;31.94;16.89;100865.78;5568379;32;35394;-67
2022/03/28 13:10:38;;;;;;;5.65;3.00;;;;;;;31.61;17.29;100853.94;5555002;32;34666;-68
2022/03/28 13:13:47;;;;;;;4.80;3.15;;;;;;;31.96;17.28;100854.47;5568534;32;34598;-67
2022/03/28 13:17:13;;;;;;;3.95;2.90;;;;;;;32.65;16.25;100851.69;5568600;32;33932;-67
2022/03/28 13:20:21;;;;;;;5.53;3.17;;;;;;;34.13;15.33;100835.59;5567965;32;34391;-68
2022/03/28 13:23:26;;;;;;;5.32;2.60;;;;;;;32.44;16.20;100830.34;5568259;32;34444;-67
2022/03/28 13:28:01;;;;;;;4.25;3.00;;;;;;;30.99;17.76;100828.34;5556869;32;33999;-66
2022/03/28 13:30:27;;;;;;;3.53;2.60;;;;;;;31.17;17.44;100823.22;5570762;32;34189;-67
2022/03/28 13:33:30;;;;;;;4.95;2.85;;;;;;;32.96;15.99;100813.44;5570410;32;34901;-68
2022/03/28 13:36:34;;;;;;;5.03;2.78;;;;;;;33.65;15.38;100800.38;5557184;32;34039;-67
2022/03/28 13:39:37;;;;;;;5.60;2.72;;;;;;;31.17;17.58;100790.34;5570626;32;34140;-68
2022/03/28 13:42:40;;;;;;;4.22;2.78;;;;;;;33.09;15.90;100793.37;5557143;32;34440;-68
2022/03/28 13:45:43;;;;;;;6.57;2.75;;;;;;;32.48;16.36;100773.72;5570402;32;33989;-68
2022/03/28 13:48:47;;;;;;;6.00;2.80;;;;;;;32.97;15.95;100767.53;5570182;32;34658;-68
2022/03/28 13:51:51;;;;;;;5.05;2.80;;;;;;;31.63;17.10;100763.09;5556599;32;33947;-67
2022/03/28 13:54:53;;;;;;;4.47;2.85;;;;;;;30.64;18.10;100763.81;5570292;32;33893;-67
2022/03/28 13:57:57;;;;;;;3.83;2.75;;;;;;;33.65;15.62;100761.84;5570345;32;34143;-68
2022/03/28 14:01:02;;;;;;;5.97;2.70;;;;;;;36.11;13.55;100745.87;5570214;32;34465;-69
2022/03/28 14:04:08;;;;;;;3.33;2.42;;;;;;;34.46;14.83;100740.53;5557260;32;34062;-68
2022/03/28 14:07:11;;;;;;;5.20;2.70;;;;;;;32.83;16.00;100741.97;5570171;32;34588;-68
2022/03/28 14:10:15;;;;;;;6.97;3.15;;;;;;;31.77;17.08;100729.09;5570268;32;34280;-68
2022/03/28 14:13:19;;;;;;;5.87;2.90;;;;;;;30.97;17.72;100717.41;5556609;32;35302;-68
2022/03/28 14:16:22;;;;;;;4.05;2.90;;;;;;;32.64;16.34;100711.87;5570232;32;34368;-68
2022/03/28 14:19:25;;;;;;;5.75;2.67;;;;;;;29.97;18.93;100707.31;5570460;32;34550;-68